Latest Weather Observations for Cape Grim

IDT60801

Issued at 10:02 pm EDT Saturday 25 February 2017 (issued every 30 minutes, with the page automatically refreshed every 10 minutes)

About weather observations | Map of weather stations | Latest weather observations for TAS | Other Formats
Station Details ID: 091331 Name: CAPE GRIM Lat: -40.68 Lon: 144.69 Height: 86.0 m
Data from the previous 72 hours. | See also: Recent months at Cape Grim
Date/Time
EDT
Temp
°C
App
Temp
°C
Dew
Point
°C
Rel
Hum
%
Delta-T
°C
Wind Press
QNH
hPa
Press
MSL
hPa
Rain since
9am
mm
Dir  Spd
km/h
Gust
km/h
Spd
kts
Gust
kts
25/10:00pm 14.5 11.9 9.3 71 2.7 SE 13 17 7 9 1026.2 1026.1 0.0
25/09:30pm 14.4 12.2 9.4 72 2.6 SSE 11 13 6 7 1026.1 1026.0 0.0
25/09:00pm 14.6 12.9 10.0 74 2.4 SSE 9 11 5 6 1025.7 1025.6 0.0
25/08:30pm 14.8 13.3 10.4 75 2.3 SSE 9 13 5 7 1025.5 1025.4 0.0
25/08:00pm 15.0 13.0 10.2 73 2.5 SSE 11 15 6 8 1025.7 1025.6 0.0
25/07:30pm 16.0 15.2 11.8 76 2.3 NE 7 11 4 6 1025.4 1025.3 0.0
25/07:00pm 16.0 14.9 11.8 76 2.3 NE 9 13 5 7 1025.5 1025.4 0.0
25/06:30pm 16.2 13.9 11.6 74 2.5 ENE 15 19 8 10 1025.3 1025.2 0.0
25/06:00pm 16.6 13.9 11.7 73 2.7 ENE 17 22 9 12 1025.0 1024.9 0.0
25/05:30pm 16.5 13.8 11.6 73 2.7 ENE 17 20 9 11 1025.1 1025.0 0.0
25/05:00pm 16.4 13.2 11.8 74 2.5 ENE 20 30 11 16 1025.5 1025.4 0.0
25/04:30pm 15.5 12.6 12.3 81 1.8 E 19 26 10 14 1025.6 1025.5 0.0
25/04:00pm 17.2 12.9 11.9 71 2.9 ENE 26 32 14 17 1025.5 1025.4 0.0
25/03:30pm 18.1 13.2 11.2 64 3.8 E 28 37 15 20 1025.5 1025.4 0.0
25/03:00pm 19.4 14.6 11.7 61 4.2 ENE 28 39 15 21 1025.6 1025.5 0.0
25/02:30pm 18.3 12.8 10.7 61 4.1 ENE 30 39 16 21 1025.9 1025.8 0.0
25/02:00pm 18.1 13.0 10.7 62 4.0 E 28 37 15 20 1025.9 1025.8 0.0
25/01:30pm 17.9 13.7 11.0 64 3.7 E 24 35 13 19 1025.9 1025.8 0.0
25/01:00pm 16.8 11.3 10.4 66 3.4 E 30 37 16 20 1026.1 1026.0 0.0
25/12:30pm 16.9 11.3 10.1 64 3.6 E 30 35 16 19 1026.0 1025.9 0.0
25/12:00pm 17.9 11.6 9.0 56 4.6 E 32 39 17 21 1025.9 1025.8 0.0
25/11:30am 17.6 11.5 8.2 54 4.8 E 30 41 16 22 1025.7 1025.6 0.0
25/11:00am 16.7 11.9 7.4 54 4.6 SE 22 33 12 18 1026.0 1025.9 0.0
25/10:30am 13.9 8.3 5.5 57 4.0 SSE 24 30 13 16 1026.2 1026.1 0.0
25/10:00am 13.5 8.3 5.7 59 3.7 SSE 22 30 12 16 1026.1 1026.0 0.0
25/09:30am 13.0 7.7 5.2 59 3.6 SSE 22 28 12 15 1026.0 1025.9 0.0
25/09:00am 12.2 6.0 4.4 59 3.5 SSE 26 39 14 21 1025.7 1025.6 0.0
25/08:30am 11.8 5.0 5.2 64 3.0 S 30 43 16 23 1025.7 1025.6 0.0
25/08:00am 11.6 4.8 5.3 65 2.9 S 30 39 16 21 1025.5 1025.4 0.0
25/07:30am 11.5 4.2 4.7 63 3.1 S 32 43 17 23 1025.3 1025.2 0.0
25/07:00am 11.7 4.5 5.8 67 2.7 S 33 48 18 26 1025.1 1025.0 0.0
25/06:46am 11.7 4.1 5.6 66 2.8 S 35 54 19 29 1024.8 1024.7 0.0
25/06:30am 11.6 4.1 6.3 70 2.5 S 35 48 19 26 1024.8 1024.7 0.0
25/06:00am 11.4 4.4 5.9 69 2.6 S 32 50 17 27 1024.6 1024.5 0.0
25/05:30am 11.3 3.9 5.0 65 2.9 S 33 46 18 25 1024.4 1024.3 0.0
25/05:00am 11.3 4.1 5.2 66 2.8 S 32 39 17 21 1024.4 1024.3 0.0
25/04:30am 11.6 4.9 5.5 66 2.8 S 30 44 16 24 1024.4 1024.3 0.0
25/04:08am 11.9 5.6 5.8 66 2.9 S 28 46 15 25 1024.6 1024.5 0.0
25/04:00am 12.1 5.5 5.9 66 2.9 S 30 43 16 23 1024.7 1024.6 0.0
25/03:30am 12.2 5.3 6.3 67 2.8 S 32 43 17 23 1024.9 1024.8 0.0
25/03:00am 11.7 6.3 6.2 69 2.6 S 24 37 13 20 1025.0 1024.9 0.0
25/02:30am 12.1 7.3 7.2 72 2.4 SSE 22 30 12 16 1025.4 1025.3 0.0
25/02:00am 12.9 7.0 7.6 70 2.6 S 28 43 15 23 1025.2 1025.1 0.0
25/01:30am 12.9 6.9 6.9 67 2.9 S 28 35 15 19 1025.2 1025.1 0.0
25/01:00am 12.8 6.7 6.6 66 3.0 S 28 43 15 23 1025.2 1025.1 0.0
25/12:30am 12.9 6.8 6.5 65 3.1 S 28 41 15 22 1025.1 1025.0 0.0
25/12:00am 12.5 7.2 6.8 68 2.7 S 24 32 13 17 1025.4 1025.3 0.0
 
Date/Time
EDT
Temp
°C
App
Temp
°C
Dew
Point
°C
Rel
Hum
%
Delta-T
°C
Wind Press
QNH
hPa
Press
MSL
hPa
Rain since
9am
mm
Dir  Spd
km/h
Gust
km/h
Spd
kts
Gust
kts
24/11:30pm 12.6 7.4 7.1 69 2.7 S 24 33 13 18 1025.7 1025.6 0.0
24/11:00pm 12.8 7.6 7.3 69 2.7 S 24 35 13 19 1025.7 1025.6 0.0
24/10:30pm 12.9 7.7 7.1 68 2.8 S 24 32 13 17 1025.8 1025.7 0.0
24/10:00pm 13.0 8.1 6.8 66 3.0 S 22 32 12 17 1025.8 1025.7 0.0
24/09:30pm 13.5 6.7 6.8 64 3.2 SSW 32 43 17 23 1025.6 1025.5 0.0
24/09:00pm 13.6 6.9 7.4 66 3.0 SSW 32 48 17 26 1025.3 1025.2 0.0
24/08:30pm 13.7 5.9 6.8 63 3.3 SSW 37 50 20 27 1024.9 1024.8 0.0
24/08:00pm 13.9 6.0 7.7 66 3.1 SSW 39 52 21 28 1024.5 1024.4 0.0
24/07:36pm 14.1 7.1 8.3 68 2.9 SSW 35 54 19 29 1024.4 1024.3 0.0
24/07:30pm 14.2 6.7 7.9 66 3.1 SSW 37 50 20 27 1024.3 1024.2 0.0
24/07:00pm 14.8 7.6 9.2 69 2.9 SW 37 52 20 28 1024.1 1024.0 0.0
24/06:49pm 14.5 7.4 8.0 65 3.3 SSW 35 54 19 29 1024.1 1024.0 0.0
24/06:30pm 14.8 7.0 8.3 65 3.3 SW 39 50 21 27 1024.1 1024.0 0.0
24/06:00pm 15.0 9.0 10.8 76 2.2 SW 33 46 18 25 1023.9 1023.8 0.0
24/05:30pm 15.0 8.9 10.4 74 2.4 SSW 33 50 18 27 1023.7 1023.6 0.0
24/05:20pm 14.3 8.3 12.2 87 1.1 SW 35 54 19 29 1023.6 1023.5 0.0
24/05:00pm 15.0 7.0 11.0 77 2.1 SW 44 54 24 29 1023.5 1023.4 0.0
24/04:30pm 16.2 8.9 11.4 73 2.6 SW 41 48 22 26 1023.2 1023.1 0.0
24/04:00pm 16.4 10.1 10.9 70 2.9 SW 35 59 19 32 1023.4 1023.3 0.0
24/03:30pm 16.4 10.6 10.7 69 3.0 SW 32 48 17 26 1023.4 1023.3 0.0
24/03:00pm 16.7 9.9 10.8 68 3.2 SW 37 50 20 27 1023.6 1023.5 0.0
24/02:30pm 16.3 10.7 11.5 73 2.6 SW 32 43 17 23 1023.7 1023.6 0.0
24/02:12pm 16.7 11.8 11.2 70 3.0 WSW 28 46 15 25 1023.8 1023.7 0.0
24/02:00pm 16.1 12.3 11.1 72 2.7 WSW 22 37 12 20 1023.8 1023.7 0.0
24/01:30pm 16.1 12.6 10.8 71 2.8 WSW 20 35 11 19 1023.7 1023.6 0.0
24/01:00pm 15.7 11.5 9.6 67 3.2 WSW 22 37 12 20 1023.7 1023.6 0.0
24/12:30pm 16.2 11.3 10.1 67 3.2 SW 26 37 14 20 1023.9 1023.8 0.0
24/12:07pm 15.0 9.0 10.2 73 2.5 SW 32 50 17 27 1023.9 1023.8 0.0
24/12:00pm 14.6 6.5 10.0 74 2.4 SW 43 54 23 29 1024.1 1024.0 0.0
24/11:33am 16.0 9.0 10.1 68 3.1 SW 37 63 20 34 1023.8 1023.7 0.0
24/11:30am 16.3 8.8 8.0 58 4.2 SW 37 50 20 27 1023.9 1023.8 0.0
24/11:18am 16.1 10.5 8.8 62 3.8 SW 28 48 15 26 1023.9 1023.8 0.0
24/11:00am 15.9 11.8 10.0 68 3.1 WSW 22 41 12 22 1023.9 1023.8 0.0
24/10:30am 15.8 12.0 9.2 65 3.4 WSW 19 35 10 19 1023.8 1023.7 0.0
24/10:00am 15.2 11.2 9.1 67 3.1 SW 20 35 11 19 1023.7 1023.6 0.0
24/09:37am 15.2 9.3 7.3 59 3.9 SW 28 46 15 25 1023.5 1023.4 0.0
24/09:30am 15.3 10.2 7.6 60 3.8 SW 24 41 13 22 1023.5 1023.4 0.0
24/09:00am 15.2 8.8 7.0 58 4.0 SW 30 48 16 26 1023.3 1023.2 0.0
24/08:53am 15.2 9.2 7.0 58 4.0 SW 28 48 15 26 1023.2 1023.1 0.0
24/08:30am 14.9 10.7 8.2 64 3.4 WSW 20 43 11 23 1022.9 1022.8 0.0
24/08:00am 15.0 10.1 8.3 64 3.4 SW 24 37 13 20 1022.5 1022.4 0.0
24/07:30am 14.8 7.5 7.1 60 3.8 SW 35 44 19 24 1022.3 1022.2 0.0
24/07:00am 14.7 6.7 7.3 61 3.6 SW 39 50 21 27 1022.0 1021.8 0.0
24/06:39am 14.7 8.7 7.0 60 3.8 SW 28 46 15 25 1021.9 1021.7 0.0
24/06:30am 14.6 9.3 8.5 67 3.1 SW 26 39 14 21 1021.8 1021.6 0.0
24/06:00am 14.8 10.2 8.1 64 3.4 WSW 22 39 12 21 1021.6 1021.4 0.0
24/05:30am 14.5 7.8 7.5 63 3.5 SW 32 50 17 27 1021.4 1021.2 0.0
24/05:24am 14.6 8.1 8.1 65 3.3 SW 32 50 17 27 1021.4 1021.2 0.0
24/05:00am 14.6 10.2 7.4 62 3.5 WSW 20 43 11 23 1021.1 1020.9 0.0
24/04:40am 14.5 8.4 6.8 60 3.8 SW 28 46 15 25 1021.2 1021.0 0.0
24/04:30am 14.5 9.3 7.3 62 3.6 WSW 24 41 13 22 1021.3 1021.1 0.0
24/04:00am 14.4 8.3 8.1 66 3.1 SW 30 44 16 24 1021.3 1021.1 0.0
24/03:30am 14.5 8.2 7.5 63 3.5 SW 30 46 16 25 1021.4 1021.2 0.0
24/03:00am 14.3 9.0 6.9 61 3.6 WSW 24 37 13 20 1021.3 1021.1 0.0
24/02:30am 14.3 8.3 7.1 62 3.5 SW 28 44 15 24 1021.5 1021.3 0.0
24/02:00am 14.1 7.2 7.4 64 3.3 SW 33 43 18 23 1021.5 1021.3 0.0
24/01:30am 14.2 7.7 8.2 67 3.0 SW 32 37 17 20 1021.6 1021.4 0.0
24/01:00am 14.4 10.0 8.8 69 2.8 WSW 22 39 12 21 1021.6 1021.4 0.0
24/12:30am 14.3 8.8 7.4 63 3.4 SW 26 39 14 21 1021.9 1021.7 0.0
24/12:00am 14.4 7.4 7.0 61 3.6 SW 33 43 18 23 1021.9 1021.7 0.0
 
Date/Time
EDT
Temp
°C
App
Temp
°C
Dew
Point
°C
Rel
Hum
%
Delta-T
°C
Wind Press
QNH
hPa
Press
MSL
hPa
Rain since
9am
mm
Dir  Spd
km/h
Gust
km/h
Spd
kts
Gust
kts
23/11:30pm 14.3 7.7 7.6 64 3.3 SW 32 41 17 22 1022.0 1021.8 0.0
23/11:00pm 14.4 7.7 7.5 63 3.4 SW 32 41 17 22 1022.0 1021.8 0.0
23/10:30pm 14.6 8.1 8.1 65 3.3 SW 32 44 17 24 1021.7 1021.5 0.0
23/10:00pm 14.5 8.0 8.9 69 2.8 SW 33 46 18 25 1021.7 1021.5 0.0
23/09:30pm 14.4 8.1 9.0 70 2.8 SW 32 39 17 21 1021.3 1021.1 0.0
23/09:00pm 14.3 7.7 9.9 75 2.3 SW 35 46 19 25 1020.7 1020.5 0.0
23/08:30pm 14.7 9.0 11.1 79 1.9 SW 32 43 17 23 1020.2 1020.0 0.0
23/08:00pm 14.5 8.3 11.3 81 1.7 SW 35 46 19 25 1019.8 1019.6 0.0
23/07:47pm 14.5 8.3 11.5 82 1.6 SW 35 48 19 26 1019.6 1019.4 0.0
23/07:30pm 14.7 8.2 11.7 82 1.6 SW 37 50 20 27 1019.4 1019.2 0.0
23/07:23pm 14.5 9.2 11.1 80 1.8 SW 30 48 16 26 1019.3 1019.1 0.0
23/07:22pm 14.8 9.7 11.8 82 1.6 SW 30 46 16 25 1019.3 1019.1 0.0
23/07:16pm 14.8 9.3 11.8 82 1.6 SW 32 50 17 27 1019.2 1019.0 0.0
23/07:00pm 14.7 7.9 12.0 84 1.5 SW 39 50 21 27 1019.0 1018.8 0.0
23/06:36pm 14.5 7.8 12.4 87 1.1 SW 39 52 21 28 1018.8 1018.6 0.0
23/06:30pm 14.5 7.8 12.4 87 1.1 SW 39 54 21 29 1018.7 1018.5 0.0
23/06:10pm 14.6 9.3 13.0 90 0.9 SW 33 52 18 28 1018.5 1018.3 0.0
23/06:00pm 14.5 8.9 13.2 92 0.7 SW 35 50 19 27 1018.3 1018.1 0.0
23/05:30pm 14.7 9.8 13.7 94 0.6 WSW 32 54 17 29 1017.8 1017.6 0.0
23/05:12pm 14.9 10.6 13.3 90 0.9 WSW 28 54 15 29 1017.5 1017.4 0.0
23/05:08pm 15.4 11.9 13.4 88 1.1 WSW 24 44 13 24 1017.5 1017.4 0.0
23/05:00pm 15.6 12.2 13.6 88 1.1 WSW 24 46 13 25 1017.3 1017.2 0.0
23/04:37pm 15.6 11.1 12.7 83 1.6 WSW 28 48 15 26 1016.9 1016.8 0.0
23/04:30pm 15.7 12.5 13.2 85 1.4 WSW 22 46 12 25 1016.9 1016.8 0.0
23/04:27pm 15.7 12.5 13.2 85 1.4 WSW 22 43 12 23 1016.8 1016.7 0.0
23/04:00pm 15.7 11.5 13.5 87 1.2 W 28 48 15 26 1016.4 1016.3 0.0
23/03:55pm 15.7 11.5 13.4 86 1.3 W 28 48 15 26 1016.4 1016.3 0.0
23/03:30pm 15.9 11.3 13.6 86 1.3 W 30 43 16 23 1016.3 1016.2 0.0
23/03:21pm 15.8 11.8 14.0 89 1.0 W 28 41 15 22 1016.2 1016.1 0.0
23/03:00pm 16.4 12.1 13.3 82 1.7 W 28 41 15 22 1016.2 1016.1 0.0
23/02:30pm 16.9 12.6 13.2 79 2.1 W 28 43 15 23 1016.1 1016.0 0.0
23/02:00pm 17.2 13.1 13.7 80 2.0 W 28 43 15 23 1016.1 1016.0 0.0
23/01:46pm 16.4 12.1 13.3 82 1.7 W 28 39 15 21 1016.0 1015.9 0.0
23/01:30pm 16.2 11.9 13.1 82 1.7 W 28 44 15 24 1015.9 1015.8 0.0
23/01:14pm 17.4 12.6 14.1 81 1.9 W 32 39 17 21 1015.8 1015.7 0.0
23/01:00pm 17.8 13.2 14.7 82 1.8 W 32 41 17 22 1015.8 1015.7 0.0
23/12:30pm 17.1 12.8 14.4 84 1.6 W 30 43 16 23 1015.4 1015.3 0.0
23/12:15pm 17.1 12.6 13.8 81 1.9 W 30 41 16 22 1015.2 1015.1 0.0
23/12:00pm 17.0 12.5 13.7 81 1.9 W 30 39 16 21 1015.3 1015.2 0.0
23/11:30am 18.0 14.1 14.3 79 2.1 W 28 35 15 19 1015.1 1015.0 0.0
23/11:09am 18.1 14.4 14.0 77 2.4 W 26 39 14 21 1014.9 1014.8 0.0
23/11:00am 18.0 13.9 13.7 76 2.5 W 28 35 15 19 1014.7 1014.6 0.0
23/10:54am 17.5 14.1 13.6 78 2.2 W 24 35 13 19 1014.6 1014.5 0.0
23/10:31am 17.2 13.4 13.5 79 2.1 W 26 35 14 19 1014.3 1014.2 0.0
23/10:30am 17.2 13.4 13.5 79 2.1 W 26 35 14 19 1014.3 1014.2 0.0
23/10:17am 17.1 12.9 13.6 80 2.0 W 28 41 15 22 1014.2 1014.1 0.0
23/10:07am 16.7 11.6 13.2 80 2.0 W 32 44 17 24 1014.0 1013.9 0.0
23/10:00am 16.9 11.9 13.4 80 2.0 W 32 39 17 21 1013.9 1013.8 0.0
23/09:30am 17.3 13.0 13.2 77 2.3 W 28 35 15 19 1013.6 1013.5 0.0
23/09:00am 16.9 12.1 13.0 78 2.2 W 30 37 16 20 1013.1 1013.0 0.0
23/08:30am 16.5 11.3 12.8 79 2.1 W 32 39 17 21 1012.8 1012.7 0.0
23/08:00am 16.1 9.9 12.8 81 1.8 W 37 48 20 26 1012.3 1012.2 0.0
23/07:30am 16.0 10.0 13.3 84 1.5 W 37 50 20 27 1011.7 1011.5 0.0
23/07:00am 16.2 10.1 13.1 82 1.7 WNW 37 46 20 25 1011.2 1011.0 0.0
23/06:30am 16.3 12.2 13.8 85 1.4 WNW 28 39 15 21 1010.7 1010.5 0.0
23/06:00am 16.5 12.8 14.0 85 1.4 NW 26 37 14 20 1010.4 1010.2 0.0
23/05:30am 16.4 12.2 13.5 83 1.6 WNW 28 35 15 19 1010.0 1009.8 0.0
23/05:00am 16.2 11.0 12.7 80 1.9 WNW 32 43 17 23 1009.6 1009.4 0.0
23/04:30am 16.6 10.2 13.1 80 2.0 WNW 39 48 21 26 1009.3 1009.1 0.0
23/04:00am 16.9 10.9 13.2 79 2.1 WNW 37 46 20 25 1009.1 1008.9 0.0
23/03:30am 17.0 12.0 13.9 82 1.8 NW 33 43 18 23 1009.1 1008.9 0.0
23/03:00am 17.0 12.1 13.7 81 1.9 NW 32 48 17 26 1009.1 1008.9 0.0
23/02:52am 17.6 13.1 13.7 78 2.2 NW 30 48 16 26 1009.1 1008.9 0.0
23/02:30am 17.8 13.4 12.9 73 2.8 NW 28 39 15 21 1009.1 1008.9 0.0
23/02:00am 18.0 13.8 12.5 70 3.1 NW 26 35 14 19 1009.3 1009.1 0.0
23/01:30am 17.6 13.7 12.1 70 3.0 NW 24 30 13 16 1009.2 1009.0 0.0
23/01:00am 17.4 14.3 12.3 72 2.8 WNW 20 26 11 14 1009.4 1009.2 0.0
23/12:30am 17.8 16.4 13.5 76 2.4 N 13 17 7 9 1009.5 1009.3 0.0
23/12:00am 16.9 15.0 15.2 90 1.0 NE 19 24 10 13 1009.5 1009.3 0.0
 
Date/Time
EDT
Temp
°C
App
Temp
°C
Dew
Point
°C
Rel
Hum
%
Delta-T
°C
Wind Press
QNH
hPa
Press
MSL
hPa
Rain since
9am
mm
Dir  Spd
km/h
Gust
km/h
Spd
kts
Gust
kts
22/11:30pm 17.2 14.0 15.4 89 1.1 E 26 32 14 17 1009.3 1009.1 0.0
22/11:00pm 17.1 12.6 14.9 87 1.3 E 32 39 17 21 1008.6 1008.4 0.0
22/10:51pm 17.1 13.0 14.9 87 1.3 E 30 35 16 19 1008.4 1008.2 0.0
22/10:30pm 17.0 15.2 14.5 85 1.4 NNE 17 26 9 14 1010.2 1010.0 0.0
22/10:29pm 17.0 15.2 14.5 85 1.4 NNE 17 26 9 14 1010.2 1010.0 0.0
22/10:13pm 17.2 13.9 15.0 87 1.3 NNW 26 41 14 22 1010.7 1010.5 0.0
22/10:02pm 17.2 11.1 15.2 88 1.2 ENE 41 63 22 34 1010.3 1010.1 0.0

Other Formats:

Comma delimited format used in spreadsheet applications
http://www.bom.gov.au/fwo/IDT60801/IDT60801.95954.axf

JavaScript Object Notation format (JSON) in row-major order
http://www.bom.gov.au/fwo/IDT60801/IDT60801.95954.json